Terminal Aerodrome Forecast
Issued by NWS

Home | Current Version | Previous Version | Text Only | Print | Product List | Glossary On
Versions: 1 2 3 4 5 6 7 8 9 10 11 12 13 14 15 16 17
000
FTUS44 KMAF 041832 AAA
TAFCNM
TAF AMD
KCNM 041832Z 0419/0518 VRB05KT P6SM BKN060 BKN250
     FM042000 15009G18KT P6SM BKN070 BKN250
     FM050100 15007KT P6SM SCT150 BKN250=

USA.gov is the U.S. government's official web portal to all federal, state and local government web resources and services.